| time (UTC) | temp C | wind direction | speed KPH | gust KPH | rain 1hr cm | rain 24hr cm | rain mn cm | humidity % | barometer mb |
| 20260507095332 | 20 | 274 | 8.0 | 20.9 | 0.00 | 0.00 | 0.00 | 100 | 1012.5 |
| 20260507094132 | 21 | 248 | 16.1 | 22.5 | 0.00 | 0.00 | 0.00 | 100 | 1012.4 |
| 20260507092931 | 21 | 194 | 12.9 | 24.1 | 0.00 | 0.00 | 0.00 | 100 | 1012.3 |
| 20260507091730 | 21 | 205 | 14.5 | 27.4 | 0.00 | 0.00 | 0.00 | 100 | 1012.2 |
| 20260507090529 | 21 | 219 | 8.0 | 20.9 | 0.00 | 0.00 | 0.00 | 100 | 1012.1 |
| 20260507085329 | 21 | 170 | 12.9 | 24.1 | 0.00 | 0.00 | 0.00 | 100 | 1011.9 |
| 20260507084128 | 21 | 195 | 9.7 | 19.3 | 0.00 | 0.00 | 0.00 | 100 | 1011.8 |
| 20260507082927 | 21 | 216 | 6.4 | 19.3 | 0.00 | 0.00 | 0.00 | 100 | 1011.7 |
| 20260507081727 | 21 | 225 | 9.7 | 20.9 | 0.00 | 0.00 | 0.00 | 100 | 1011.6 |
| 20260507080526 | 20 | 248 | 14.5 | 22.5 | 0.00 | 0.00 | 0.00 | 100 | 1011.5 |
| 20260507075325 | 20 | 209 | 11.3 | 12.9 | 0.00 | 0.00 | 0.00 | 100 | 1011.5 |
| 20260507074125 | 20 | 209 | 6.4 | 17.7 | 0.00 | 0.00 | 0.00 | 100 | 1011.3 |
| 20260507072924 | 19 | 201 | 4.8 | 14.5 | 0.00 | 0.00 | 0.00 | 100 | 1011.3 |
| 20260507071723 | 18 | 189 | 16.1 | 19.3 | 0.00 | 0.00 | 0.00 | 100 | 1011.3 |
| 20260507070523 | 17 | 189 | 8.0 | 16.1 | 0.00 | 0.00 | 0.00 | 100 | 1011.2 |
| 20260507065322 | 17 | 187 | 12.9 | 17.7 | 0.00 | 0.00 | 0.00 | 100 | 1011.2 |
| 20260507064121 | 16 | 192 | 14.5 | 19.3 | 0.00 | 0.00 | 0.00 | 100 | 1011.1 |
| 20260507062921 | 16 | 202 | 8.0 | 14.5 | 0.00 | 0.00 | 0.00 | 100 | 1010.9 |
| 20260507061720 | 16 | 182 | 8.0 | 12.9 | 0.00 | 0.00 | 0.00 | 100 | 1010.9 |
| 20260507060519 | 16 | 149 | 3.2 | 6.4 | 0.00 | 0.00 | 0.00 | 100 | 1010.8 |
| 20260507055319 | 16 | 168 | 0.0 | 1.6 | 0.00 | 0.00 | 0.00 | 100 | 1010.7 |
| 20260507054118 | 15 | 151 | 1.6 | 4.8 | 0.00 | 0.00 | 0.00 | 100 | 1010.6 |
| 20260507052917 | 15 | 135 | 1.6 | 1.6 | 0.00 | 0.00 | 0.00 | 100 | 1010.4 |
| 20260507051717 | 15 | 147 | 0.0 | 3.2 | 0.00 | 0.00 | 0.00 | 100 | 1010.3 |
| 20260507050516 | 14 | 212 | 1.6 | 1.6 | 0.00 | 0.00 | 0.00 | 100 | 1010.3 |
| 20260507045315 | 14 | 199 | 0.0 | 4.8 | 0.00 | 0.00 | 0.00 | 100 | 1010.3 |
| 20260507044115 | 14 | 254 | 1.6 | 4.8 | 0.00 | 0.00 | 0.00 | 100 | 1010.0 |
| 20260507042914 | 13 | 258 | 0.0 | 0.0 | 0.00 | 0.00 | 0.00 | 100 | 1009.8 |
| 20260507041713 | 13 | 282 | 3.2 | 3.2 | 0.00 | 0.00 | 0.00 | 100 | 1009.6 |
| 20260507040512 | 13 | 146 | 0.0 | 0.0 | 0.00 | 0.00 | 0.00 | 100 | 1009.6 |
| 20260507035312 | 13 | 146 | 0.0 | 1.6 | 0.00 | 0.00 | 0.00 | 100 | 1009.4 |
| 20260507034111 | 13 | 125 | 0.0 | 0.0 | 0.00 | 0.00 | 0.00 | 100 | 1009.2 |
| 20260507032910 | 13 | 125 | 0.0 | 0.0 | 0.00 | 0.00 | 0.00 | 100 | 1009.1 |
| 20260507031710 | 13 | 125 | 0.0 | 1.6 | 0.00 | 0.00 | 0.00 | 100 | 1009.1 |
| 20260507030509 | 13 | 144 | 0.0 | 3.2 | 0.00 | 0.00 | 0.00 | 100 | 1009.1 |
| 20260507025308 | 13 | 171 | 4.8 | 4.8 | 0.00 | 0.00 | 0.00 | 100 | 1009.0 |
| 20260507024108 | 13 | 156 | 1.6 | 4.8 | 0.00 | 0.00 | 0.00 | 100 | 1008.9 |
| 20260507022907 | 13 | 147 | 0.0 | 4.8 | 0.00 | 0.00 | 0.00 | 100 | 1008.8 |
| 20260507021706 | 13 | 163 | 3.2 | 8.0 | 0.00 | 0.00 | 0.00 | 100 | 1008.5 |
| 20260507020506 | 13 | 338 | 8.0 | 12.9 | 0.00 | 0.00 | 0.00 | 100 | 1008.4 |
| 20260507015306 | 12 | 322 | 9.7 | 11.3 | 0.00 | 0.00 | 0.00 | 100 | 1008.4 |
| 20260507014104 | 12 | 312 | 9.7 | 11.3 | 0.00 | 0.00 | 0.00 | 100 | 1008.3 |
| 20260507012904 | 13 | 351 | 0.0 | 4.8 | 0.00 | 0.00 | 0.00 | 100 | 1008.2 |
| 20260507011703 | 13 | 154 | 0.0 | 1.6 | 0.00 | 0.00 | 0.00 | 100 | 1008.2 |
| 20260507010502 | 13 | 171 | 3.2 | 4.8 | 0.00 | 0.00 | 0.00 | 100 | 1008.0 |
| 20260507005305 | 13 | 262 | 3.2 | 3.2 | 0.00 | 0.00 | 0.00 | 100 | 1008.1 |
| 20260507004101 | 13 | 271 | 0.0 | 0.0 | 0.00 | 0.00 | 0.00 | 100 | 1008.1 |
| 20260507002900 | 13 | 299 | 1.6 | 3.2 | 0.00 | 0.00 | 0.00 | 100 | 1008.0 |
| 20260507001700 | 14 | 94 | 1.6 | 4.8 | 0.00 | 0.00 | 0.00 | 100 | 1007.9 |
| 20260507000459 | 14 | 74 | 3.2 | 4.8 | 0.00 | 0.00 | 0.00 | 100 | 1007.9 |
| 20260506235258 | 14 | 112 | 0.0 | 4.8 | 0.00 | 0.00 | 0.00 | 100 | 1008.3 |
| 20260506234057 | 14 | 320 | 3.2 | 11.3 | 0.00 | 0.00 | 0.00 | 100 | 1008.1 |
| 20260506232857 | 15 | 26 | 3.2 | 9.7 | 0.00 | 0.00 | 0.00 | 100 | 1008.0 |
| 20260506231656 | 15 | 357 | 4.8 | 14.5 | 0.00 | 0.00 | 0.00 | 100 | 1007.9 |
| 20260506230455 | 15 | 12 | 6.4 | 14.5 | 0.00 | 0.00 | 0.00 | 100 | 1008.0 |
| 20260506225255 | 15 | 337 | 8.0 | 14.5 | 0.00 | 0.00 | 0.00 | 100 | 1008.0 |
| 20260506224054 | 16 | 336 | 11.3 | 16.1 | 0.00 | 0.00 | 0.00 | 100 | 1007.9 |
| 20260506222853 | 18 | 284 | 1.6 | 8.0 | 0.00 | 0.00 | 0.00 | 100 | 1007.9 |
| 20260506221653 | 17 | 165 | 9.7 | 14.5 | 0.00 | 0.00 | 0.00 | 100 | 1007.8 |
| 20260506220452 | 17 | 185 | 8.0 | 17.7 | 0.00 | 0.00 | 0.00 | 100 | 1007.7 |
| 20260506215252 | 17 | 192 | 9.7 | 14.5 | 0.00 | 0.00 | 0.00 | 100 | 1007.6 |
| 20260506214051 | 17 | 161 | 14.5 | 24.1 | 0.00 | 0.00 | 0.00 | 100 | 1007.5 |
| 20260506212850 | 17 | 184 | 12.9 | 22.5 | 0.00 | 0.00 | 0.00 | 100 | 1007.5 |
| 20260506211649 | 18 | 149 | 17.7 | 17.7 | 0.00 | 0.00 | 0.00 | 100 | 1007.5 |
| 20260506210449 | 18 | 195 | 11.3 | 14.5 | 0.00 | 0.00 | 0.00 | 100 | 1007.4 |
| 20260506205248 | 18 | 189 | 9.7 | 19.3 | 0.00 | 0.00 | 0.00 | 100 | 1007.3 |
| 20260506204047 | 19 | 157 | 17.7 | 24.1 | 0.00 | 0.00 | 0.00 | 100 | 1007.3 |
| 20260506202847 | 19 | 188 | 14.5 | 25.7 | 0.00 | 0.00 | 0.00 | 100 | 1007.2 |
| 20260506201646 | 19 | 195 | 14.5 | 17.7 | 0.00 | 0.00 | 0.00 | 100 | 1007.3 |
| 20260506200445 | 19 | 160 | 11.3 | 20.9 | 0.00 | 0.00 | 0.00 | 100 | 1007.1 |
| 20260506195245 | 19 | 185 | 11.3 | 20.9 | 0.00 | 0.00 | 0.00 | 100 | 1007.1 |
| 20260506194044 | 19 | 158 | 6.4 | 14.5 | 0.00 | 0.00 | 0.00 | 100 | 1007.0 |
| 20260506192843 | 19 | 143 | 8.0 | 12.9 | 0.00 | 0.00 | 0.00 | 100 | 1007.0 |
| 20260506191643 | 19 | 180 | 8.0 | 11.3 | 0.00 | 0.00 | 0.00 | 100 | 1007.0 |
| 20260506191245 | 19 | 147 | 8.0 | 8.0 | 0.00 | 0.00 | 0.00 | 100 | 1006.8 |
| 20260506190442 | 20 | 165 | 8.0 | 12.9 | 0.00 | 0.00 | 0.00 | 100 | 1006.7 |
| 20260506185241 | 20 | 135 | 11.3 | 19.3 | 0.00 | 0.00 | 0.00 | 100 | 1006.6 |
| 20260506184040 | 20 | 144 | 8.0 | 25.7 | 0.00 | 0.00 | 0.00 | 100 | 1006.4 |
| 20260506182840 | 20 | 137 | 12.9 | 25.7 | 0.00 | 0.00 | 0.00 | 100 | 1006.2 |
| 20260506181639 | 20 | 153 | 22.5 | 24.1 | 0.00 | 0.00 | 0.00 | 100 | 1006.2 |
| 20260506180438 | 21 | 156 | 16.1 | 29.0 | 0.00 | 0.00 | 0.00 | 100 | 1006.2 |
| 20260506175238 | 21 | 153 | 17.7 | 30.6 | 0.00 | 0.00 | 0.00 | 100 | 1006.2 |
| 20260506174037 | 21 | 135 | 16.1 | 33.8 | 0.00 | 0.00 | 0.00 | 100 | 1006.2 |
| 20260506172836 | 21 | 150 | 22.5 | 32.2 | 0.00 | 0.00 | 0.00 | 100 | 1006.2 |
| 20260506171636 | 22 | 157 | 17.7 | 30.6 | 0.00 | 0.00 | 0.00 | 100 | 1006.3 |
| 20260506170435 | 22 | 178 | 17.7 | 37.0 | 0.00 | 0.00 | 0.00 | 100 | 1006.5 |
| 20260506165234 | 22 | 182 | 27.4 | 40.2 | 0.00 | 0.00 | 0.00 | 100 | 1006.4 |
| 20260506164034 | 22 | 199 | 24.1 | 35.4 | 0.00 | 0.00 | 0.00 | 100 | 1006.4 |
| 20260506162833 | 23 | 203 | 22.5 | 29.0 | 0.00 | 0.00 | 0.00 | 100 | 1006.5 |
| 20260506161632 | 23 | 160 | 27.4 | 33.8 | 0.00 | 0.00 | 0.00 | 100 | 1006.7 |
| 20260506160432 | 23 | 154 | 19.3 | 27.4 | 0.00 | 0.00 | 0.00 | 100 | 1006.8 |
| 20260506155231 | 23 | 188 | 11.3 | 20.9 | 0.00 | 0.00 | 0.00 | 100 | 1007.1 |
| 20260506154030 | 22 | 165 | 14.5 | 19.3 | 0.00 | 0.00 | 0.00 | 100 | 1007.4 |
| 20260506152830 | 22 | 146 | 19.3 | 27.4 | 0.00 | 0.00 | 0.00 | 100 | 1007.4 |
| 20260506151629 | 23 | 191 | 11.3 | 20.9 | 0.00 | 0.00 | 0.00 | 100 | 1007.4 |
| 20260506150428 | 23 | 181 | 16.1 | 22.5 | 0.00 | 0.00 | 0.00 | 100 | 1007.5 |
| 20260506145227 | 23 | 194 | 11.3 | 17.7 | 0.00 | 0.00 | 0.00 | 100 | 1007.7 |
| 20260506144027 | 23 | 184 | 11.3 | 24.1 | 0.00 | 0.00 | 0.00 | 100 | 1007.8 |
| 20260506142826 | 23 | 187 | 14.5 | 24.1 | 0.00 | 0.00 | 0.00 | 100 | 1007.8 |
| 20260506141625 | 23 | 188 | 9.7 | 20.9 | 0.00 | 0.00 | 0.00 | 100 | 1007.9 |
| 20260506140425 | 24 | 170 | 25.7 | 32.2 | 0.00 | 0.00 | 0.00 | 100 | 1007.9 |
| 20260506135224 | 23 | 212 | 14.5 | 27.4 | 0.00 | 0.00 | 0.00 | 100 | 1008.0 |
| 20260506134023 | 25 | 175 | 16.1 | 27.4 | 0.00 | 0.00 | 0.00 | 100 | 1008.1 |
| 20260506132823 | 23 | 201 | 12.9 | 27.4 | 0.00 | 0.00 | 0.00 | 100 | 1008.2 |
| 20260506131622 | 23 | 226 | 17.7 | 27.4 | 0.00 | 0.00 | 0.00 | 100 | 1008.3 |
| 20260506130421 | 25 | 215 | 16.1 | 25.7 | 0.00 | 0.00 | 0.00 | 100 | 1008.3 |
| 20260506125221 | 25 | 177 | 17.7 | 38.6 | 0.00 | 0.00 | 0.00 | 100 | 1008.2 |
| 20260506124020 | 25 | 149 | 25.7 | 30.6 | 0.00 | 0.00 | 0.00 | 100 | 1008.4 |
| 20260506122819 | 25 | 171 | 8.0 | 25.7 | 0.00 | 0.00 | 0.00 | 100 | 1008.5 |
| 20260506121619 | 25 | 180 | 14.5 | 24.1 | 0.00 | 0.00 | 0.00 | 100 | 1008.4 |
| 20260506120418 | 24 | 168 | 22.5 | 27.4 | 0.00 | 0.00 | 0.00 | 100 | 1008.5 |
| 20260506115217 | 25 | 189 | 17.7 | 33.8 | 0.00 | 0.00 | 0.00 | 100 | 1008.4 |
| 20260506114017 | 23 | 185 | 16.1 | 33.8 | 0.00 | 0.00 | 0.00 | 100 | 1008.5 |
| 20260506112816 | 24 | 161 | 27.4 | 32.2 | 0.00 | 0.00 | 0.00 | 100 | 1008.5 |
| 20260506111615 | 24 | 223 | 22.5 | 33.8 | 0.00 | 0.00 | 0.00 | 100 | 1008.6 |
| 20260506110415 | 24 | 180 | 16.1 | 32.2 | 0.00 | 0.00 | 0.00 | 100 | 1008.6 |
| 20260506105214 | 24 | 187 | 27.4 | 40.2 | 0.00 | 0.00 | 0.00 | 100 | 1008.5 |
| 20260506104013 | 24 | 163 | 29.0 | 33.8 | 0.00 | 0.00 | 0.00 | 100 | 1008.4 |
| 20260506102813 | 23 | 185 | 22.5 | 37.0 | 0.00 | 0.00 | 0.00 | 100 | 1008.6 |
| 20260506101612 | 23 | 188 | 14.5 | 29.0 | 0.00 | 0.00 | 0.00 | 100 | 1008.7 |
| 20260506100411 | 22 | 178 | 24.1 | 30.6 | 0.00 | 0.00 | 0.00 | 100 | 1008.8 |